sensor_id;sensor_type;location;lat;lon;timestamp;P1;durP1;ratioP1;P2;durP2;ratioP2
41952;SDS011;63613;28.200;112.870;2023-07-13T00:02:00;7.20;;;6.60;;
41952;SDS011;63613;28.200;112.870;2023-07-13T00:04:27;6.75;;;6.15;;
41952;SDS011;63613;28.200;112.870;2023-07-13T00:06:54;6.18;;;5.68;;
41952;SDS011;63613;28.200;112.870;2023-07-13T00:09:21;7.60;;;7.00;;
41952;SDS011;63613;28.200;112.870;2023-07-13T00:11:51;7.07;;;6.47;;
41952;SDS011;63613;28.200;112.870;2023-07-13T00:14:20;7.63;;;6.93;;
41952;SDS011;63613;28.200;112.870;2023-07-13T00:16:47;7.68;;;7.03;;
41952;SDS011;63613;28.200;112.870;2023-07-13T00:19:14;8.45;;;7.47;;
41952;SDS011;63613;28.200;112.870;2023-07-13T00:21:42;8.88;;;7.10;;
41952;SDS011;63613;28.200;112.870;2023-07-13T00:24:29;7.72;;;7.03;;
41952;SDS011;63613;28.200;112.870;2023-07-13T00:26:56;7.88;;;7.15;;
41952;SDS011;63613;28.200;112.870;2023-07-13T00:29:26;7.60;;;7.00;;
41952;SDS011;63613;28.200;112.870;2023-07-13T00:31:53;7.00;;;6.40;;
41952;SDS011;63613;28.200;112.870;2023-07-13T00:34:20;7.88;;;7.28;;
41952;SDS011;63613;28.200;112.870;2023-07-13T00:36:47;8.25;;;7.45;;
41952;SDS011;63613;28.200;112.870;2023-07-13T00:39:14;7.43;;;6.57;;
41952;SDS011;63613;28.200;112.870;2023-07-13T00:41:41;7.30;;;6.80;;
41952;SDS011;63613;28.200;112.870;2023-07-13T00:44:19;7.75;;;7.10;;
41952;SDS011;63613;28.200;112.870;2023-07-13T00:46:49;7.60;;;6.95;;
41952;SDS011;63613;28.200;112.870;2023-07-13T00:49:20;7.40;;;6.80;;
41952;SDS011;63613;28.200;112.870;2023-07-13T00:54:23;7.00;;;6.50;;
41952;SDS011;63613;28.200;112.870;2023-07-13T00:57:19;7.05;;;6.47;;
41952;SDS011;63613;28.200;112.870;2023-07-13T00:59:49;7.68;;;7.07;;
41952;SDS011;63613;28.200;112.870;2023-07-13T01:02:25;8.00;;;7.30;;
41952;SDS011;63613;28.200;112.870;2023-07-13T01:04:55;7.85;;;7.18;;
41952;SDS011;63613;28.200;112.870;2023-07-13T01:07:22;9.55;;;7.55;;
41952;SDS011;63613;28.200;112.870;2023-07-13T01:09:52;8.02;;;7.30;;
41952;SDS011;63613;28.200;112.870;2023-07-13T01:12:25;7.90;;;7.25;;
41952;SDS011;63613;28.200;112.870;2023-07-13T01:14:56;8.13;;;7.32;;
41952;SDS011;63613;28.200;112.870;2023-07-13T01:17:28;7.85;;;7.25;;
41952;SDS011;63613;28.200;112.870;2023-07-13T01:20:01;8.50;;;7.70;;
41952;SDS011;63613;28.200;112.870;2023-07-13T01:22:28;7.72;;;7.05;;
41952;SDS011;63613;28.200;112.870;2023-07-13T01:24:58;8.50;;;7.70;;
41952;SDS011;63613;28.200;112.870;2023-07-13T01:27:29;8.50;;;7.75;;
41952;SDS011;63613;28.200;112.870;2023-07-13T01:29:56;8.73;;;8.00;;
41952;SDS011;63613;28.200;112.870;2023-07-13T01:32:28;8.75;;;8.07;;
41952;SDS011;63613;28.200;112.870;2023-07-13T01:34:59;8.43;;;7.72;;
41952;SDS011;63613;28.200;112.870;2023-07-13T01:37:26;7.80;;;7.20;;
41952;SDS011;63613;28.200;112.870;2023-07-13T01:39:58;7.72;;;7.03;;
41952;SDS011;63613;28.200;112.870;2023-07-13T01:42:26;8.85;;;8.23;;
41952;SDS011;63613;28.200;112.870;2023-07-13T01:44:53;8.73;;;7.50;;
41952;SDS011;63613;28.200;112.870;2023-07-13T01:47:40;8.48;;;7.78;;
41952;SDS011;63613;28.200;112.870;2023-07-13T01:50:07;8.73;;;8.02;;
41952;SDS011;63613;28.200;112.870;2023-07-13T01:52:40;9.10;;;8.30;;
41952;SDS011;63613;28.200;112.870;2023-07-13T01:55:08;8.13;;;7.53;;
41952;SDS011;63613;28.200;112.870;2023-07-13T01:57:34;8.70;;;8.05;;
41952;SDS011;63613;28.200;112.870;2023-07-13T02:00:04;8.68;;;7.90;;
41952;SDS011;63613;28.200;112.870;2023-07-13T02:02:32;9.30;;;8.60;;
41952;SDS011;63613;28.200;112.870;2023-07-13T02:05:03;8.35;;;7.65;;
41952;SDS011;63613;28.200;112.870;2023-07-13T02:07:30;9.05;;;8.15;;
41952;SDS011;63613;28.200;112.870;2023-07-13T02:09:59;8.40;;;7.70;;
41952;SDS011;63613;28.200;112.870;2023-07-13T02:12:26;8.35;;;7.65;;
41952;SDS011;63613;28.200;112.870;2023-07-13T02:14:56;9.02;;;8.23;;
41952;SDS011;63613;28.200;112.870;2023-07-13T02:17:26;10.18;;;9.25;;
41952;SDS011;63613;28.200;112.870;2023-07-13T02:19:53;9.40;;;8.50;;
41952;SDS011;63613;28.200;112.870;2023-07-13T02:22:20;9.13;;;8.40;;
41952;SDS011;63613;28.200;112.870;2023-07-13T02:24:48;8.70;;;8.05;;
41952;SDS011;63613;28.200;112.870;2023-07-13T02:27:15;10.27;;;9.30;;
41952;SDS011;63613;28.200;112.870;2023-07-13T02:29:45;10.80;;;9.73;;
41952;SDS011;63613;28.200;112.870;2023-07-13T02:32:17;10.25;;;9.23;;
41952;SDS011;63613;28.200;112.870;2023-07-13T02:34:44;9.75;;;8.85;;
41952;SDS011;63613;28.200;112.870;2023-07-13T02:37:10;9.80;;;8.98;;
41952;SDS011;63613;28.200;112.870;2023-07-13T02:39:37;9.45;;;8.65;;
41952;SDS011;63613;28.200;112.870;2023-07-13T02:42:04;10.55;;;9.65;;
41952;SDS011;63613;28.200;112.870;2023-07-13T02:44:32;10.25;;;9.38;;
41952;SDS011;63613;28.200;112.870;2023-07-13T02:46:58;9.25;;;8.43;;
41952;SDS011;63613;28.200;112.870;2023-07-13T02:49:25;10.27;;;9.38;;
41952;SDS011;63613;28.200;112.870;2023-07-13T02:51:52;9.60;;;8.80;;
41952;SDS011;63613;28.200;112.870;2023-07-13T02:54:19;9.32;;;8.52;;
41952;SDS011;63613;28.200;112.870;2023-07-13T02:56:46;9.02;;;8.20;;
41952;SDS011;63613;28.200;112.870;2023-07-13T02:59:13;9.40;;;8.43;;
41952;SDS011;63613;28.200;112.870;2023-07-13T03:01:40;9.40;;;8.60;;
41952;SDS011;63613;28.200;112.870;2023-07-13T03:04:07;9.43;;;8.60;;
41952;SDS011;63613;28.200;112.870;2023-07-13T03:06:34;9.48;;;8.77;;
41952;SDS011;63613;28.200;112.870;2023-07-13T03:09:01;9.15;;;8.45;;
41952;SDS011;63613;28.200;112.870;2023-07-13T03:11:30;9.18;;;8.40;;
41952;SDS011;63613;28.200;112.870;2023-07-13T03:14:00;9.23;;;8.43;;
41952;SDS011;63613;28.200;112.870;2023-07-13T03:16:27;9.15;;;8.45;;
41952;SDS011;63613;28.200;112.870;2023-07-13T03:18:54;9.23;;;8.35;;
41952;SDS011;63613;28.200;112.870;2023-07-13T03:21:21;9.73;;;8.93;;
41952;SDS011;63613;28.200;112.870;2023-07-13T03:23:48;9.15;;;8.30;;
41952;SDS011;63613;28.200;112.870;2023-07-13T03:26:16;9.65;;;8.73;;
41952;SDS011;63613;28.200;112.870;2023-07-13T03:28:45;9.23;;;8.43;;
41952;SDS011;63613;28.200;112.870;2023-07-13T03:31:15;9.88;;;9.05;;
41952;SDS011;63613;28.200;112.870;2023-07-13T03:33:44;8.93;;;8.23;;
41952;SDS011;63613;28.200;112.870;2023-07-13T03:36:36;9.07;;;7.97;;
41952;SDS011;63613;28.200;112.870;2023-07-13T03:39:03;9.77;;;8.88;;
41952;SDS011;63613;28.200;112.870;2023-07-13T03:41:34;8.88;;;8.00;;
41952;SDS011;63613;28.200;112.870;2023-07-13T03:44:01;9.15;;;8.38;;
41952;SDS011;63613;28.200;112.870;2023-07-13T03:46:49;9.45;;;8.50;;
41952;SDS011;63613;28.200;112.870;2023-07-13T03:49:16;8.52;;;7.82;;
41952;SDS011;63613;28.200;112.870;2023-07-13T03:51:43;8.68;;;7.78;;
41952;SDS011;63613;28.200;112.870;2023-07-13T03:54:13;9.23;;;8.32;;
41952;SDS011;63613;28.200;112.870;2023-07-13T03:56:40;10.18;;;9.18;;
41952;SDS011;63613;28.200;112.870;2023-07-13T03:59:10;8.82;;;8.13;;
41952;SDS011;63613;28.200;112.870;2023-07-13T04:01:37;9.43;;;8.52;;
41952;SDS011;63613;28.200;112.870;2023-07-13T04:04:04;9.70;;;8.70;;
41952;SDS011;63613;28.200;112.870;2023-07-13T04:06:31;9.50;;;8.60;;
41952;SDS011;63613;28.200;112.870;2023-07-13T04:09:02;8.82;;;8.02;;
41952;SDS011;63613;28.200;112.870;2023-07-13T04:11:33;8.80;;;8.00;;
41952;SDS011;63613;28.200;112.870;2023-07-13T04:14:03;9.73;;;8.93;;
41952;SDS011;63613;28.200;112.870;2023-07-13T04:16:30;9.23;;;8.52;;
41952;SDS011;63613;28.200;112.870;2023-07-13T04:18:57;9.73;;;8.85;;
41952;SDS011;63613;28.200;112.870;2023-07-13T04:21:27;9.02;;;8.27;;
41952;SDS011;63613;28.200;112.870;2023-07-13T04:23:56;9.20;;;8.40;;
41952;SDS011;63613;28.200;112.870;2023-07-13T04:26:23;9.50;;;8.57;;
41952;SDS011;63613;28.200;112.870;2023-07-13T04:28:50;8.60;;;7.85;;
41952;SDS011;63613;28.200;112.870;2023-07-13T04:31:21;9.68;;;8.73;;
41952;SDS011;63613;28.200;112.870;2023-07-13T04:33:48;9.38;;;8.57;;
41952;SDS011;63613;28.200;112.870;2023-07-13T04:36:16;9.40;;;8.50;;
41952;SDS011;63613;28.200;112.870;2023-07-13T04:38:43;9.38;;;8.68;;
41952;SDS011;63613;28.200;112.870;2023-07-13T04:41:10;8.85;;;8.07;;
41952;SDS011;63613;28.200;112.870;2023-07-13T04:43:42;9.55;;;8.75;;
41952;SDS011;63613;28.200;112.870;2023-07-13T04:46:12;10.32;;;9.32;;
41952;SDS011;63613;28.200;112.870;2023-07-13T04:48:40;9.70;;;8.80;;
41952;SDS011;63613;28.200;112.870;2023-07-13T04:51:07;9.00;;;8.10;;
41952;SDS011;63613;28.200;112.870;2023-07-13T04:53:35;9.10;;;8.30;;
41952;SDS011;63613;28.200;112.870;2023-07-13T04:56:02;9.02;;;8.30;;
41952;SDS011;63613;28.200;112.870;2023-07-13T04:58:31;8.57;;;7.82;;
41952;SDS011;63613;28.200;112.870;2023-07-13T05:01:19;8.55;;;7.85;;
41952;SDS011;63613;28.200;112.870;2023-07-13T05:03:51;8.93;;;8.20;;
41952;SDS011;63613;28.200;112.870;2023-07-13T05:06:18;9.10;;;8.30;;
41952;SDS011;63613;28.200;112.870;2023-07-13T05:08:45;9.35;;;8.38;;
41952;SDS011;63613;28.200;112.870;2023-07-13T05:11:12;8.90;;;8.10;;
41952;SDS011;63613;28.200;112.870;2023-07-13T05:13:39;9.38;;;8.30;;
41952;SDS011;63613;28.200;112.870;2023-07-13T05:16:08;8.88;;;7.97;;
41952;SDS011;63613;28.200;112.870;2023-07-13T05:18:35;8.82;;;7.93;;
41952;SDS011;63613;28.200;112.870;2023-07-13T05:21:04;8.57;;;7.88;;
41952;SDS011;63613;28.200;112.870;2023-07-13T05:23:34;8.40;;;7.70;;
41952;SDS011;63613;28.200;112.870;2023-07-13T05:26:02;8.52;;;7.82;;
41952;SDS011;63613;28.200;112.870;2023-07-13T05:28:30;8.60;;;7.80;;
41952;SDS011;63613;28.200;112.870;2023-07-13T05:30:58;8.00;;;7.40;;
41952;SDS011;63613;28.200;112.870;2023-07-13T05:33:31;9.32;;;8.63;;
41952;SDS011;63613;28.200;112.870;2023-07-13T05:36:04;7.93;;;7.22;;
41952;SDS011;63613;28.200;112.870;2023-07-13T05:38:50;8.55;;;7.75;;
41952;SDS011;63613;28.200;112.870;2023-07-13T05:41:17;8.98;;;8.27;;
41952;SDS011;63613;28.200;112.870;2023-07-13T05:43:44;9.85;;;9.05;;
41952;SDS011;63613;28.200;112.870;2023-07-13T05:46:12;8.93;;;8.23;;
41952;SDS011;63613;28.200;112.870;2023-07-13T05:48:39;9.05;;;8.25;;
41952;SDS011;63613;28.200;112.870;2023-07-13T05:51:08;8.70;;;7.90;;
41952;SDS011;63613;28.200;112.870;2023-07-13T05:53:35;8.82;;;8.13;;
41952;SDS011;63613;28.200;112.870;2023-07-13T05:56:02;9.20;;;8.38;;
41952;SDS011;63613;28.200;112.870;2023-07-13T05:58:29;8.48;;;7.78;;
41952;SDS011;63613;28.200;112.870;2023-07-13T06:01:03;8.68;;;7.90;;
41952;SDS011;63613;28.200;112.870;2023-07-13T06:03:37;8.98;;;8.25;;
41952;SDS011;63613;28.200;112.870;2023-07-13T06:06:04;9.68;;;8.77;;
41952;SDS011;63613;28.200;112.870;2023-07-13T06:08:36;8.73;;;7.97;;
41952;SDS011;63613;28.200;112.870;2023-07-13T06:13:38;9.40;;;8.48;;
41952;SDS011;63613;28.200;112.870;2023-07-13T06:16:05;9.43;;;8.52;;
41952;SDS011;63613;28.200;112.870;2023-07-13T06:18:34;9.48;;;8.77;;
41952;SDS011;63613;28.200;112.870;2023-07-13T06:21:10;8.82;;;7.97;;
41952;SDS011;63613;28.200;112.870;2023-07-13T06:23:46;9.15;;;8.45;;
41952;SDS011;63613;28.200;112.870;2023-07-13T06:26:16;9.30;;;8.05;;
41952;SDS011;63613;28.200;112.870;2023-07-13T06:28:44;9.52;;;8.57;;
41952;SDS011;63613;28.200;112.870;2023-07-13T06:31:15;9.20;;;8.50;;
41952;SDS011;63613;28.200;112.870;2023-07-13T06:33:43;9.68;;;8.90;;
41952;SDS011;63613;28.200;112.870;2023-07-13T06:36:15;8.98;;;8.18;;
41952;SDS011;63613;28.200;112.870;2023-07-13T06:38:42;8.18;;;7.57;;
41952;SDS011;63613;28.200;112.870;2023-07-13T06:41:08;8.90;;;8.18;;
41952;SDS011;63613;28.200;112.870;2023-07-13T06:43:37;9.35;;;8.50;;
41952;SDS011;63613;28.200;112.870;2023-07-13T06:46:07;9.07;;;8.30;;
41952;SDS011;63613;28.200;112.870;2023-07-13T06:48:36;8.27;;;7.57;;
41952;SDS011;63613;28.200;112.870;2023-07-13T06:51:03;9.07;;;8.23;;
41952;SDS011;63613;28.200;112.870;2023-07-13T06:53:33;8.77;;;8.07;;
41952;SDS011;63613;28.200;112.870;2023-07-13T06:56:03;9.02;;;8.27;;
41952;SDS011;63613;28.200;112.870;2023-07-13T06:58:33;9.30;;;8.40;;
41952;SDS011;63613;28.200;112.870;2023-07-13T07:01:00;8.38;;;7.68;;
41952;SDS011;63613;28.200;112.870;2023-07-13T07:03:33;9.43;;;8.63;;
41952;SDS011;63613;28.200;112.870;2023-07-13T07:06:06;8.70;;;7.97;;
41952;SDS011;63613;28.200;112.870;2023-07-13T07:08:40;8.90;;;8.18;;
41952;SDS011;63613;28.200;112.870;2023-07-13T07:11:08;9.63;;;8.63;;
41952;SDS011;63613;28.200;112.870;2023-07-13T07:13:38;10.32;;;9.43;;
41952;SDS011;63613;28.200;112.870;2023-07-13T07:16:07;9.20;;;8.50;;
41952;SDS011;63613;28.200;112.870;2023-07-13T07:18:36;9.23;;;8.38;;
41952;SDS011;63613;28.200;112.870;2023-07-13T07:21:03;9.45;;;8.50;;
41952;SDS011;63613;28.200;112.870;2023-07-13T07:23:32;9.38;;;8.50;;
41952;SDS011;63613;28.200;112.870;2023-07-13T07:26:01;9.07;;;8.38;;
41952;SDS011;63613;28.200;112.870;2023-07-13T07:28:29;9.10;;;8.35;;
41952;SDS011;63613;28.200;112.870;2023-07-13T07:31:02;10.13;;;9.25;;
41952;SDS011;63613;28.200;112.870;2023-07-13T07:33:29;9.43;;;8.52;;
41952;SDS011;63613;28.200;112.870;2023-07-13T07:35:55;8.70;;;8.00;;
41952;SDS011;63613;28.200;112.870;2023-07-13T07:38:22;8.93;;;8.10;;
41952;SDS011;63613;28.200;112.870;2023-07-13T07:41:09;10.35;;;9.35;;
41952;SDS011;63613;28.200;112.870;2023-07-13T07:43:36;9.65;;;8.95;;
41952;SDS011;63613;28.200;112.870;2023-07-13T07:46:03;9.07;;;8.25;;
41952;SDS011;63613;28.200;112.870;2023-07-13T07:48:33;9.77;;;8.88;;
41952;SDS011;63613;28.200;112.870;2023-07-13T07:51:02;8.57;;;7.88;;
41952;SDS011;63613;28.200;112.870;2023-07-13T07:53:29;8.88;;;8.07;;
41952;SDS011;63613;28.200;112.870;2023-07-13T07:55:56;9.60;;;8.70;;
41952;SDS011;63613;28.200;112.870;2023-07-13T07:58:25;8.98;;;8.25;;
41952;SDS011;63613;28.200;112.870;2023-07-13T08:00:53;8.88;;;8.18;;
41952;SDS011;63613;28.200;112.870;2023-07-13T08:03:29;9.02;;;8.23;;
41952;SDS011;63613;28.200;112.870;2023-07-13T08:05:58;9.75;;;8.90;;
41952;SDS011;63613;28.200;112.870;2023-07-13T08:08:24;9.38;;;8.57;;
41952;SDS011;63613;28.200;112.870;2023-07-13T08:10:53;8.57;;;7.88;;
41952;SDS011;63613;28.200;112.870;2023-07-13T08:13:21;9.23;;;8.52;;
41952;SDS011;63613;28.200;112.870;2023-07-13T08:15:52;9.45;;;8.65;;
41952;SDS011;63613;28.200;112.870;2023-07-13T08:18:39;9.00;;;8.20;;
41952;SDS011;63613;28.200;112.870;2023-07-13T08:21:06;9.18;;;8.38;;
41952;SDS011;63613;28.200;112.870;2023-07-13T08:23:35;8.63;;;7.90;;
41952;SDS011;63613;28.200;112.870;2023-07-13T08:26:02;8.63;;;8.00;;
41952;SDS011;63613;28.200;112.870;2023-07-13T08:28:32;8.82;;;8.13;;
41952;SDS011;63613;28.200;112.870;2023-07-13T08:31:00;9.18;;;8.38;;
41952;SDS011;63613;28.200;112.870;2023-07-13T08:33:31;10.05;;;9.05;;
41952;SDS011;63613;28.200;112.870;2023-07-13T08:35:57;9.00;;;8.30;;
41952;SDS011;63613;28.200;112.870;2023-07-13T08:38:26;8.57;;;7.88;;
41952;SDS011;63613;28.200;112.870;2023-07-13T08:40:56;9.15;;;8.43;;
41952;SDS011;63613;28.200;112.870;2023-07-13T08:43:30;9.43;;;8.55;;
41952;SDS011;63613;28.200;112.870;2023-07-13T08:48:50;8.80;;;8.10;;
41952;SDS011;63613;28.200;112.870;2023-07-13T08:54:39;8.50;;;7.80;;
41952;SDS011;63613;28.200;112.870;2023-07-13T08:57:14;9.05;;;8.45;;
41952;SDS011;63613;28.200;112.870;2023-07-13T08:59:53;9.63;;;8.82;;
41952;SDS011;63613;28.200;112.870;2023-07-13T09:05:27;9.02;;;8.15;;
41952;SDS011;63613;28.200;112.870;2023-07-13T09:11:10;9.48;;;8.68;;
41952;SDS011;63613;28.200;112.870;2023-07-13T09:13:46;8.35;;;7.75;;
41952;SDS011;63613;28.200;112.870;2023-07-13T09:16:22;9.65;;;8.85;;
41952;SDS011;63613;28.200;112.870;2023-07-13T09:18:51;9.85;;;9.05;;
41952;SDS011;63613;28.200;112.870;2023-07-13T09:21:39;9.55;;;8.77;;
41952;SDS011;63613;28.200;112.870;2023-07-13T09:24:25;9.70;;;8.80;;
41952;SDS011;63613;28.200;112.870;2023-07-13T09:26:53;9.15;;;8.48;;
41952;SDS011;63613;28.200;112.870;2023-07-13T09:29:28;9.50;;;8.80;;
41952;SDS011;63613;28.200;112.870;2023-07-13T09:32:20;9.63;;;8.77;;
41952;SDS011;63613;28.200;112.870;2023-07-13T09:34:52;9.43;;;8.73;;
41952;SDS011;63613;28.200;112.870;2023-07-13T09:37:22;10.00;;;9.20;;
41952;SDS011;63613;28.200;112.870;2023-07-13T09:39:56;9.57;;;8.80;;
41952;SDS011;63613;28.200;112.870;2023-07-13T09:42:26;9.63;;;8.75;;
41952;SDS011;63613;28.200;112.870;2023-07-13T09:44:56;9.48;;;8.75;;
41952;SDS011;63613;28.200;112.870;2023-07-13T09:54:55;9.40;;;8.60;;
41952;SDS011;63613;28.200;112.870;2023-07-13T09:57:25;9.48;;;8.75;;
41952;SDS011;63613;28.200;112.870;2023-07-13T09:59:54;10.02;;;9.10;;
41952;SDS011;63613;28.200;112.870;2023-07-13T10:02:29;10.35;;;9.50;;
41952;SDS011;63613;28.200;112.870;2023-07-13T10:05:07;10.07;;;9.18;;
41952;SDS011;63613;28.200;112.870;2023-07-13T10:07:40;10.38;;;9.50;;
41952;SDS011;63613;28.200;112.870;2023-07-13T10:10:17;10.57;;;9.57;;
41952;SDS011;63613;28.200;112.870;2023-07-13T10:12:48;10.23;;;9.23;;
41952;SDS011;63613;28.200;112.870;2023-07-13T10:15:18;9.43;;;8.73;;
41952;SDS011;63613;28.200;112.870;2023-07-13T10:17:51;9.85;;;9.02;;
41952;SDS011;63613;28.200;112.870;2023-07-13T10:20:19;10.65;;;9.85;;
41952;SDS011;63613;28.200;112.870;2023-07-13T10:23:00;10.80;;;9.77;;
41952;SDS011;63613;28.200;112.870;2023-07-13T10:25:33;10.05;;;9.35;;
41952;SDS011;63613;28.200;112.870;2023-07-13T10:28:09;11.70;;;9.32;;
41952;SDS011;63613;28.200;112.870;2023-07-13T10:31:00;11.73;;;10.70;;
41952;SDS011;63613;28.200;112.870;2023-07-13T10:33:28;10.18;;;9.38;;
41952;SDS011;63613;28.200;112.870;2023-07-13T10:35:59;9.75;;;8.95;;
41952;SDS011;63613;28.200;112.870;2023-07-13T10:38:35;12.07;;;10.85;;
41952;SDS011;63613;28.200;112.870;2023-07-13T10:41:03;9.85;;;8.95;;
41952;SDS011;63613;28.200;112.870;2023-07-13T10:46:16;10.70;;;9.77;;
41952;SDS011;63613;28.200;112.870;2023-07-13T10:48:47;11.13;;;10.20;;
41952;SDS011;63613;28.200;112.870;2023-07-13T10:51:18;10.77;;;9.82;;
41952;SDS011;63613;28.200;112.870;2023-07-13T10:53:47;10.20;;;9.30;;
41952;SDS011;63613;28.200;112.870;2023-07-13T10:56:33;11.18;;;10.18;;
41952;SDS011;63613;28.200;112.870;2023-07-13T10:59:02;11.25;;;10.30;;
41952;SDS011;63613;28.200;112.870;2023-07-13T11:04:20;10.93;;;9.82;;
41952;SDS011;63613;28.200;112.870;2023-07-13T11:06:52;10.75;;;9.85;;
41952;SDS011;63613;28.200;112.870;2023-07-13T11:09:40;11.60;;;10.50;;
41952;SDS011;63613;28.200;112.870;2023-07-13T11:22:48;10.73;;;9.73;;
41952;SDS011;63613;28.200;112.870;2023-07-13T11:25:26;11.70;;;10.50;;
41952;SDS011;63613;28.200;112.870;2023-07-13T11:28:37;10.98;;;9.88;;
41952;SDS011;63613;28.200;112.870;2023-07-13T11:33:23;11.75;;;10.75;;
41952;SDS011;63613;28.200;112.870;2023-07-13T11:43:50;11.45;;;10.35;;
41952;SDS011;63613;28.200;112.870;2023-07-13T11:46:35;11.20;;;10.20;;
41952;SDS011;63613;28.200;112.870;2023-07-13T11:49:04;11.25;;;10.15;;
41952;SDS011;63613;28.200;112.870;2023-07-13T11:51:35;12.07;;;10.88;;
41952;SDS011;63613;28.200;112.870;2023-07-13T11:54:04;11.30;;;10.27;;
41952;SDS011;63613;28.200;112.870;2023-07-13T11:56:47;11.45;;;10.35;;
41952;SDS011;63613;28.200;112.870;2023-07-13T11:59:15;12.40;;;10.80;;
41952;SDS011;63613;28.200;112.870;2023-07-13T12:01:44;11.30;;;9.90;;
41952;SDS011;63613;28.200;112.870;2023-07-13T12:07:18;11.30;;;10.18;;
41952;SDS011;63613;28.200;112.870;2023-07-13T12:09:45;12.40;;;11.20;;
41952;SDS011;63613;28.200;112.870;2023-07-13T12:12:13;11.90;;;10.00;;
41952;SDS011;63613;28.200;112.870;2023-07-13T12:14:42;12.57;;;11.35;;
41952;SDS011;63613;28.200;112.870;2023-07-13T12:17:30;11.40;;;10.20;;
41952;SDS011;63613;28.200;112.870;2023-07-13T12:19:59;12.38;;;11.18;;
41952;SDS011;63613;28.200;112.870;2023-07-13T12:22:27;13.18;;;10.52;;
41952;SDS011;63613;28.200;112.870;2023-07-13T12:24:54;12.18;;;10.90;;
41952;SDS011;63613;28.200;112.870;2023-07-13T12:27:52;11.70;;;10.57;;
41952;SDS011;63613;28.200;112.870;2023-07-13T12:30:27;12.63;;;11.48;;
41952;SDS011;63613;28.200;112.870;2023-07-13T12:33:05;12.75;;;11.32;;
41952;SDS011;63613;28.200;112.870;2023-07-13T12:35:39;12.20;;;10.63;;
41952;SDS011;63613;28.200;112.870;2023-07-13T12:38:10;13.30;;;10.77;;
41952;SDS011;63613;28.200;112.870;2023-07-13T12:40:37;13.60;;;10.70;;
41952;SDS011;63613;28.200;112.870;2023-07-13T12:43:11;10.65;;;9.52;;
41952;SDS011;63613;28.200;112.870;2023-07-13T12:45:39;11.13;;;10.02;;
41952;SDS011;63613;28.200;112.870;2023-07-13T12:48:21;11.60;;;10.30;;
41952;SDS011;63613;28.200;112.870;2023-07-13T12:50:51;14.15;;;11.10;;
41952;SDS011;63613;28.200;112.870;2023-07-13T12:53:22;12.85;;;10.15;;
41952;SDS011;63613;28.200;112.870;2023-07-13T12:56:02;11.73;;;10.52;;
41952;SDS011;63613;28.200;112.870;2023-07-13T12:58:36;12.55;;;11.05;;
41952;SDS011;63613;28.200;112.870;2023-07-13T13:01:09;12.45;;;10.52;;
41952;SDS011;63613;28.200;112.870;2023-07-13T13:03:39;11.48;;;10.20;;
41952;SDS011;63613;28.200;112.870;2023-07-13T13:08:49;11.38;;;9.68;;
41952;SDS011;63613;28.200;112.870;2023-07-13T13:11:20;12.90;;;10.98;;
41952;SDS011;63613;28.200;112.870;2023-07-13T13:13:48;11.40;;;10.23;;
41952;SDS011;63613;28.200;112.870;2023-07-13T13:16:22;11.65;;;10.45;;
41952;SDS011;63613;28.200;112.870;2023-07-13T13:18:54;12.43;;;10.38;;
41952;SDS011;63613;28.200;112.870;2023-07-13T13:21:27;11.55;;;10.07;;
41952;SDS011;63613;28.200;112.870;2023-07-13T13:23:54;12.57;;;11.20;;
41952;SDS011;63613;28.200;112.870;2023-07-13T13:26:21;11.60;;;10.27;;
41952;SDS011;63613;28.200;112.870;2023-07-13T13:28:54;15.38;;;10.38;;
41952;SDS011;63613;28.200;112.870;2023-07-13T13:31:20;12.02;;;9.90;;
41952;SDS011;63613;28.200;112.870;2023-07-13T13:33:48;11.85;;;10.00;;
41952;SDS011;63613;28.200;112.870;2023-07-13T13:36:16;10.73;;;9.65;;
41952;SDS011;63613;28.200;112.870;2023-07-13T13:38:45;10.85;;;9.82;;
41952;SDS011;63613;28.200;112.870;2023-07-13T13:41:14;10.60;;;9.52;;
41952;SDS011;63613;28.200;112.870;2023-07-13T13:43:44;11.80;;;10.02;;
41952;SDS011;63613;28.200;112.870;2023-07-13T13:46:16;10.77;;;9.60;;
41952;SDS011;63613;28.200;112.870;2023-07-13T13:48:55;11.30;;;10.15;;
41952;SDS011;63613;28.200;112.870;2023-07-13T13:51:22;10.50;;;9.43;;
41952;SDS011;63613;28.200;112.870;2023-07-13T13:54:12;10.98;;;9.88;;
41952;SDS011;63613;28.200;112.870;2023-07-13T13:56:45;10.55;;;9.45;;
41952;SDS011;63613;28.200;112.870;2023-07-13T13:59:15;12.00;;;10.82;;
41952;SDS011;63613;28.200;112.870;2023-07-13T14:01:45;11.38;;;9.70;;
41952;SDS011;63613;28.200;112.870;2023-07-13T14:04:15;11.10;;;10.00;;
41952;SDS011;63613;28.200;112.870;2023-07-13T14:06:46;11.77;;;9.57;;
41952;SDS011;63613;28.200;112.870;2023-07-13T14:09:14;11.25;;;10.07;;
41952;SDS011;63613;28.200;112.870;2023-07-13T14:11:43;10.45;;;9.38;;
41952;SDS011;63613;28.200;112.870;2023-07-13T14:14:16;10.90;;;9.80;;
41952;SDS011;63613;28.200;112.870;2023-07-13T14:16:48;10.98;;;9.55;;
41952;SDS011;63613;28.200;112.870;2023-07-13T14:19:36;10.07;;;9.07;;
41952;SDS011;63613;28.200;112.870;2023-07-13T14:22:03;10.80;;;9.80;;
41952;SDS011;63613;28.200;112.870;2023-07-13T14:24:30;10.13;;;9.18;;
41952;SDS011;63613;28.200;112.870;2023-07-13T14:26:57;11.70;;;10.60;;
41952;SDS011;63613;28.200;112.870;2023-07-13T14:29:26;10.35;;;9.05;;
41952;SDS011;63613;28.200;112.870;2023-07-13T14:31:57;9.75;;;8.73;;
41952;SDS011;63613;28.200;112.870;2023-07-13T14:34:24;11.25;;;9.57;;
41952;SDS011;63613;28.200;112.870;2023-07-13T14:36:51;9.43;;;8.63;;
41952;SDS011;63613;28.200;112.870;2023-07-13T14:39:22;11.20;;;10.00;;
41952;SDS011;63613;28.200;112.870;2023-07-13T14:41:54;10.93;;;9.82;;
41952;SDS011;63613;28.200;112.870;2023-07-13T14:44:28;10.07;;;9.20;;
41952;SDS011;63613;28.200;112.870;2023-07-13T14:49:30;10.52;;;9.32;;
41952;SDS011;63613;28.200;112.870;2023-07-13T14:52:21;10.35;;;9.35;;
41952;SDS011;63613;28.200;112.870;2023-07-13T14:54:53;10.95;;;9.95;;
41952;SDS011;63613;28.200;112.870;2023-07-13T14:57:40;9.77;;;8.75;;
41952;SDS011;63613;28.200;112.870;2023-07-13T15:00:12;10.70;;;9.68;;
41952;SDS011;63613;28.200;112.870;2023-07-13T15:02:53;10.50;;;9.50;;
41952;SDS011;63613;28.200;112.870;2023-07-13T15:05:25;10.20;;;9.30;;
41952;SDS011;63613;28.200;112.870;2023-07-13T15:07:59;10.75;;;9.65;;
41952;SDS011;63613;28.200;112.870;2023-07-13T15:10:32;10.98;;;9.82;;
41952;SDS011;63613;28.200;112.870;2023-07-13T15:13:12;10.80;;;9.80;;
41952;SDS011;63613;28.200;112.870;2023-07-13T15:15:50;9.85;;;8.95;;
41952;SDS011;63613;28.200;112.870;2023-07-13T15:18:19;10.82;;;8.77;;
41952;SDS011;63613;28.200;112.870;2023-07-13T15:20:55;10.20;;;9.20;;
41952;SDS011;63613;28.200;112.870;2023-07-13T15:23:25;9.70;;;8.82;;
41952;SDS011;63613;28.200;112.870;2023-07-13T15:25:53;9.95;;;9.02;;
41952;SDS011;63613;28.200;112.870;2023-07-13T15:28:19;10.50;;;9.43;;
41952;SDS011;63613;28.200;112.870;2023-07-13T15:30:47;11.02;;;9.60;;
41952;SDS011;63613;28.200;112.870;2023-07-13T15:33:26;9.70;;;8.82;;
41952;SDS011;63613;28.200;112.870;2023-07-13T15:35:55;10.68;;;9.02;;
41952;SDS011;63613;28.200;112.870;2023-07-13T15:38:24;10.50;;;9.65;;